Time;durP1;ratioP1;P1;durP2;ratioP2;P2;SDS_P1;SDS_P2;PMS_P1;PMS_P2;Temp;Humidity;BMP_temperature;BMP_pressure;BME280_temperature;BME280_humidity;BME280_pressure;Samples;Min_cycle;Max_cycle;Signal;HPM_P1;HPM_P2
2021/03/24 00:01:40;;;;;;;;;;;;;;;;;;5067959;28;822;-69
2021/03/24 00:04:05;;;;;;;;;;;;;;;;;;5068026;28;882;-69
2021/03/24 00:06:31;;;;;;;;;;;;;;;;;;5067083;28;683;-68
2021/03/24 00:08:56;;;;;;;;;;;;;;;;;;5067172;28;949;-69
2021/03/24 00:11:22;;;;;;;;;;;;;;;;;;5062476;28;1275;-69
2021/03/24 00:13:48;;;;;;;;;;;;;;;;;;5048270;28;1471;-69
2021/03/24 00:16:13;;;;;;;;;;;;;;;;;;5047056;28;1881;-69
2021/03/24 00:18:39;;;;;;;;;;;;;;;;;;5047682;28;918;-69
2021/03/24 00:21:05;;;;;;;;;;;;;;;;;;5045844;28;933;-69
2021/03/24 00:23:30;;;;;;;;;;;;;;;;;;5046789;28;799;-69
2021/03/24 00:25:56;;;;;;;;;;;;;;;;;;5046596;28;811;-69
2021/03/24 00:28:21;;;;;;;;;;;;;;;;;;5046447;28;834;-68
2021/03/24 00:30:48;;;;;;;;;;;;;;;;;;5046835;28;843;-68
2021/03/24 00:33:15;;;;;;;;;;;;;;;;;;5046429;28;827;-70
2021/03/24 00:35:40;;;;;;;;;;;;;;;;;;5046598;28;1889;-69
2021/03/24 00:38:06;;;;;;;;;;;;;;;;;;5050557;28;839;-69
2021/03/24 00:40:36;;;;;;;;;;;;;;;;;;5050505;28;834;-69
2021/03/24 00:43:04;;;;;;;;;;;;;;;;;;5049682;28;1072;-68
2021/03/24 00:45:29;;;;;;;;;;;;;;;;;;5050823;28;807;-68
2021/03/24 00:47:55;;;;;;;;;;;;;;;;;;5046554;28;1617;-69
2021/03/24 00:50:21;;;;;;;;;;;;;;;;;;5048579;28;1593;-69
2021/03/24 00:52:47;;;;;;;;;;;;;;;;;;5034199;28;1293;-69
2021/03/24 00:55:14;;;;;;;;;;;;;;;;;;5071846;28;850;-70
2021/03/24 00:57:39;;;;;;;;;;;;;;;;;;5057542;28;1918;-69
2021/03/24 01:00:06;;;;;;;;;;;;;;;;;;5041768;28;1056;-69
2021/03/24 01:02:32;;;;;;;;;;;;;;;;;;5030743;28;842;-69
2021/03/24 01:04:58;;;;;;;;;;;;;;;;;;5030613;28;839;-67
2021/03/24 01:07:23;;;;;;;;;;;;;;;;;;5037846;28;903;-68
2021/03/24 01:09:48;;;;;;;;;;;;;;;;;;5048279;28;1155;-69
2021/03/24 01:12:14;;;;;;;;;;;;;;;;;;5050703;28;842;-68
2021/03/24 01:14:41;;;;;;;;;;;;;;;;;;5051017;28;858;-69
2021/03/24 01:17:07;;;;;;;;;;;;;;;;;;5050755;28;1885;-69
2021/03/24 01:19:32;;;;;;;;;;;;;;;;;;5050336;28;847;-69
2021/03/24 01:21:57;;;;;;;;;;;;;;;;;;5049498;28;819;-68
2021/03/24 01:24:23;;;;;;;;;;;;;;;;;;5049378;28;827;-68
2021/03/24 01:26:48;;;;;;;;;;;;;;;;;;5049643;28;894;-68
2021/03/24 01:29:14;;;;;;;;;;;;;;;;;;5050080;28;828;-69
2021/03/24 01:31:39;;;;;;;;;;;;;;;;;;5050468;28;823;-69
2021/03/24 01:34:05;;;;;;;;;;;;;;;;;;5048250;28;1192;-67
2021/03/24 01:36:30;;;;;;;;;;;;;;;;;;5048298;28;1886;-68
2021/03/24 01:38:56;;;;;;;;;;;;;;;;;;5029566;28;879;-69
2021/03/24 01:41:23;;;;;;;;;;;;;;;;;;5029202;28;882;-69
2021/03/24 01:43:49;;;;;;;;;;;;;;;;;;5029142;28;903;-69
2021/03/24 01:46:23;;;;;;;;;;;;;;;;;;5029852;28;875;-68
2021/03/24 01:48:54;;;;;;;;;;;;;;;;;;5028613;28;886;-69
2021/03/24 01:51:28;;;;;;;;;;;;;;;;;;5029601;28;1069;-67
2021/03/24 01:53:54;;;;;;;;;;;;;;;;;;5048714;28;1158;-68
2021/03/24 01:56:20;;;;;;;;;;;;;;;;;;5055212;28;2010;-67
2021/03/24 01:58:46;;;;;;;;;;;;;;;;;;5039897;28;895;-67
2021/03/24 02:01:14;;;;;;;;;;;;;;;;;;5049153;28;839;-67
2021/03/24 02:03:39;;;;;;;;;;;;;;;;;;5050229;28;1153;-68
2021/03/24 02:06:19;;;;;;;;;;;;;;;;;;5050686;28;1116;-66
2021/03/24 02:08:47;;;;;;;;;;;;;;;;;;5048677;28;803;-66
2021/03/24 02:11:19;;;;;;;;;;;;;;;;;;5048670;28;1155;-68
2021/03/24 02:13:44;;;;;;;;;;;;;;;;;;5048720;28;803;-67
2021/03/24 02:16:25;;;;;;;;;;;;;;;;;;5049320;28;1973;-66
2021/03/24 02:18:52;;;;;;;;;;;;;;;;;;5048703;28;827;-66
2021/03/24 02:21:21;;;;;;;;;;;;;;;;;;5048542;28;931;-66
2021/03/24 02:23:50;;;;;;;;;;;;;;;;;;5048670;28;992;-66
2021/03/24 02:26:28;;;;;;;;;;;;;;;;;;5049066;28;823;-66
2021/03/24 02:28:55;;;;;;;;;;;;;;;;;;5048519;28;946;-65
2021/03/24 02:31:22;;;;;;;;;;;;;;;;;;5048802;28;858;-66
2021/03/24 02:33:49;;;;;;;;;;;;;;;;;;5048862;28;820;-66
2021/03/24 02:36:17;;;;;;;;;;;;;;;;;;5048506;28;2394;-66
2021/03/24 02:38:44;;;;;;;;;;;;;;;;;;5048457;28;883;-65
2021/03/24 02:41:10;;;;;;;;;;;;;;;;;;5049459;28;1147;-68
2021/03/24 02:43:35;;;;;;;;;;;;;;;;;;5049388;28;831;-69
2021/03/24 02:46:02;;;;;;;;;;;;;;;;;;5048476;28;867;-70
2021/03/24 02:48:32;;;;;;;;;;;;;;;;;;5048240;28;1069;-69
2021/03/24 02:50:58;;;;;;;;;;;;;;;;;;5048647;28;866;-67
2021/03/24 02:53:24;;;;;;;;;;;;;;;;;;5054460;28;1094;-68
2021/03/24 02:55:52;;;;;;;;;;;;;;;;;;5067945;28;1901;-68
2021/03/24 02:58:17;;;;;;;;;;;;;;;;;;5054578;28;1182;-70
2021/03/24 03:00:45;;;;;;;;;;;;;;;;;;5048242;28;914;-69
2021/03/24 03:03:17;;;;;;;;;;;;;;;;;;5048629;28;858;-70
2021/03/24 03:05:44;;;;;;;;;;;;;;;;;;5048270;28;811;-68
2021/03/24 03:08:21;;;;;;;;;;;;;;;;;;5049019;28;867;-70
2021/03/24 03:10:55;;;;;;;;;;;;;;;;;;5047937;28;903;-69
2021/03/24 03:13:21;;;;;;;;;;;;;;;;;;5047705;28;832;-70
2021/03/24 03:15:48;;;;;;;;;;;;;;;;;;5047951;28;1889;-69
2021/03/24 03:18:29;;;;;;;;;;;;;;;;;;5048057;28;835;-69
2021/03/24 03:20:57;;;;;;;;;;;;;;;;;;5047830;28;842;-69
2021/03/24 03:23:26;;;;;;;;;;;;;;;;;;5047937;28;823;-69
2021/03/24 03:26:00;;;;;;;;;;;;;;;;;;5048242;28;709;-70
2021/03/24 03:28:27;;;;;;;;;;;;;;;;;;5047422;28;902;-70
2021/03/24 03:30:55;;;;;;;;;;;;;;;;;;5047655;28;871;-69
2021/03/24 03:33:24;;;;;;;;;;;;;;;;;;5047081;28;898;-69
2021/03/24 03:35:51;;;;;;;;;;;;;;;;;;5046898;28;1889;-70
2021/03/24 03:38:17;;;;;;;;;;;;;;;;;;5047338;28;799;-69
2021/03/24 03:40:44;;;;;;;;;;;;;;;;;;5047404;28;843;-69
2021/03/24 03:43:12;;;;;;;;;;;;;;;;;;5048076;28;950;-69
2021/03/24 03:45:39;;;;;;;;;;;;;;;;;;5047921;28;839;-70
2021/03/24 03:48:05;;;;;;;;;;;;;;;;;;5047342;28;839;-70
2021/03/24 03:50:30;;;;;;;;;;;;;;;;;;5047903;28;949;-70
2021/03/24 03:53:14;;;;;;;;;;;;;;;;;;5049417;28;1157;-70
2021/03/24 03:55:57;;;;;;;;;;;;;;;;;;5067774;28;1897;-70
2021/03/24 03:58:41;;;;;;;;;;;;;;;;;;5069841;28;826;-70
2021/03/24 04:01:10;;;;;;;;;;;;;;;;;;5067923;28;838;-69
2021/03/24 04:03:39;;;;;;;;;;;;;;;;;;5067884;28;886;-69
2021/03/24 04:06:07;;;;;;;;;;;;;;;;;;5067379;28;814;-70
2021/03/24 04:08:34;;;;;;;;;;;;;;;;;;5067413;28;878;-69
2021/03/24 04:11:01;;;;;;;;;;;;;;;;;;5067063;28;826;-69
2021/03/24 04:13:28;;;;;;;;;;;;;;;;;;5062188;28;1356;-68
2021/03/24 04:15:55;;;;;;;;;;;;;;;;;;5067229;28;1965;-70
2021/03/24 04:18:26;;;;;;;;;;;;;;;;;;5066943;28;870;-70
2021/03/24 04:20:52;;;;;;;;;;;;;;;;;;5066975;28;945;-69
2021/03/24 04:23:20;;;;;;;;;;;;;;;;;;5066872;28;811;-69
2021/03/24 04:26:00;;;;;;;;;;;;;;;;;;5036621;28;858;-70
2021/03/24 04:28:28;;;;;;;;;;;;;;;;;;5026888;28;914;-69
2021/03/24 04:30:56;;;;;;;;;;;;;;;;;;5025611;28;844;-68
2021/03/24 04:33:21;;;;;;;;;;;;;;;;;;5025943;28;827;-69
2021/03/24 04:35:47;;;;;;;;;;;;;;;;;;5026892;28;1976;-69
2021/03/24 04:38:25;;;;;;;;;;;;;;;;;;5026761;28;846;-70
2021/03/24 04:40:52;;;;;;;;;;;;;;;;;;5027077;28;816;-69
2021/03/24 04:43:20;;;;;;;;;;;;;;;;;;5025017;28;974;-69
2021/03/24 04:45:57;;;;;;;;;;;;;;;;;;5031627;28;1226;-69
2021/03/24 04:48:31;;;;;;;;;;;;;;;;;;5026837;28;867;-69
2021/03/24 04:50:59;;;;;;;;;;;;;;;;;;5026679;28;867;-70
2021/03/24 04:53:25;;;;;;;;;;;;;;;;;;5039550;28;1079;-68
2021/03/24 04:55:53;;;;;;;;;;;;;;;;;;5066573;28;1902;-70
2021/03/24 04:58:25;;;;;;;;;;;;;;;;;;5067694;28;835;-68
2021/03/24 05:00:53;;;;;;;;;;;;;;;;;;5067389;28;1040;-69
2021/03/24 05:03:22;;;;;;;;;;;;;;;;;;5066521;28;842;-70
2021/03/24 05:05:51;;;;;;;;;;;;;;;;;;5066770;28;823;-69
2021/03/24 05:08:33;;;;;;;;;;;;;;;;;;5066347;28;843;-69
2021/03/24 05:11:02;;;;;;;;;;;;;;;;;;5066560;28;894;-65
2021/03/24 05:13:35;;;;;;;;;;;;;;;;;;5066916;28;855;-68
2021/03/24 05:16:13;;;;;;;;;;;;;;;;;;5066193;28;1968;-68
2021/03/24 05:18:39;;;;;;;;;;;;;;;;;;5066768;28;819;-67
2021/03/24 05:21:16;;;;;;;;;;;;;;;;;;5066151;28;870;-65
2021/03/24 05:23:42;;;;;;;;;;;;;;;;;;5066466;28;808;-70
2021/03/24 05:26:27;;;;;;;;;;;;;;;;;;5070264;28;986;-66
2021/03/24 05:28:53;;;;;;;;;;;;;;;;;;5069461;28;1348;-66
2021/03/24 05:31:27;;;;;;;;;;;;;;;;;;5066042;28;1162;-66
2021/03/24 05:34:18;;;;;;;;;;;;;;;;;;5048421;28;874;-65
2021/03/24 05:36:45;;;;;;;;;;;;;;;;;;5047464;28;1894;-64
2021/03/24 05:39:11;;;;;;;;;;;;;;;;;;5049109;28;1449;-68
2021/03/24 05:41:53;;;;;;;;;;;;;;;;;;5041994;28;1625;-66
2021/03/24 05:44:37;;;;;;;;;;;;;;;;;;5033742;28;1681;-64
2021/03/24 05:47:05;;;;;;;;;;;;;;;;;;5037942;28;1622;-64
2021/03/24 05:49:30;;;;;;;;;;;;;;;;;;5040193;28;819;-65
2021/03/24 05:52:04;;;;;;;;;;;;;;;;;;5049088;28;838;-64
2021/03/24 05:54:36;;;;;;;;;;;;;;;;;;5064184;28;1110;-64
2021/03/24 05:57:01;;;;;;;;;;;;;;;;;;5069368;28;1902;-64
2021/03/24 05:59:30;;;;;;;;;;;;;;;;;;5069287;28;882;-68
2021/03/24 06:02:01;;;;;;;;;;;;;;;;;;5068956;28;958;-68
2021/03/24 06:04:53;;;;;;;;;;;;;;;;;;5069447;28;823;-67
2021/03/24 06:07:18;;;;;;;;;;;;;;;;;;5067972;28;1213;-67
2021/03/24 06:09:49;;;;;;;;;;;;;;;;;;5067938;28;839;-68
2021/03/24 06:12:33;;;;;;;;;;;;;;;;;;5069588;28;834;-67
2021/03/24 06:15:17;;;;;;;;;;;;;;;;;;5069050;28;847;-68
2021/03/24 06:18:14;;;;;;;;;;;;;;;;;;5068599;28;1905;-68
2021/03/24 06:20:44;;;;;;;;;;;;;;;;;;5042283;28;1140;-67
2021/03/24 06:23:28;;;;;;;;;;;;;;;;;;5043047;28;1011;-68
2021/03/24 06:25:53;;;;;;;;;;;;;;;;;;5048701;28;795;-68
2021/03/24 06:28:30;;;;;;;;;;;;;;;;;;5049151;28;1210;-68
2021/03/24 06:31:14;;;;;;;;;;;;;;;;;;5048481;28;799;-68
2021/03/24 06:33:58;;;;;;;;;;;;;;;;;;5049906;28;815;-69
2021/03/24 06:36:32;;;;;;;;;;;;;;;;;;5048604;28;1918;-68
2021/03/24 06:38:58;;;;;;;;;;;;;;;;;;5048476;28;914;-67
2021/03/24 06:41:26;;;;;;;;;;;;;;;;;;5041800;28;1689;-68
2021/03/24 06:43:54;;;;;;;;;;;;;;;;;;5028525;28;918;-69
2021/03/24 06:46:25;;;;;;;;;;;;;;;;;;5028256;28;886;-69
2021/03/24 06:48:57;;;;;;;;;;;;;;;;;;5028247;28;930;-69
2021/03/24 06:51:41;;;;;;;;;;;;;;;;;;5028467;28;890;-69
2021/03/24 06:54:12;;;;;;;;;;;;;;;;;;5054033;28;1099;-68
2021/03/24 06:56:38;;;;;;;;;;;;;;;;;;5046170;28;1894;-66
2021/03/24 06:59:12;;;;;;;;;;;;;;;;;;5054857;28;1512;-66
2021/03/24 07:01:38;;;;;;;;;;;;;;;;;;5057024;28;1441;-67
2021/03/24 07:04:22;;;;;;;;;;;;;;;;;;5046899;28;1718;-67
2021/03/24 07:07:09;;;;;;;;;;;;;;;;;;5029432;28;1356;-67
2021/03/24 07:09:37;;;;;;;;;;;;;;;;;;5047871;28;819;-67
2021/03/24 07:12:06;;;;;;;;;;;;;;;;;;5047370;28;862;-67
2021/03/24 07:14:47;;;;;;;;;;;;;;;;;;5046438;28;1620;-67
2021/03/24 07:17:31;;;;;;;;;;;;;;;;;;5055866;28;1945;-67
2021/03/24 07:20:05;;;;;;;;;;;;;;;;;;5034478;28;1213;-67
2021/03/24 07:22:37;;;;;;;;;;;;;;;;;;5028719;28;1178;-67
2021/03/24 07:25:21;;;;;;;;;;;;;;;;;;5036945;28;1237;-68
2021/03/24 07:27:49;;;;;;;;;;;;;;;;;;5041201;28;1264;-67
2021/03/24 07:30:28;;;;;;;;;;;;;;;;;;5040644;28;1698;-67
2021/03/24 07:32:54;;;;;;;;;;;;;;;;;;5053808;28;1207;-67
2021/03/24 07:35:19;;;;;;;;;;;;;;;;;;5057240;28;1224;-67
2021/03/24 07:37:47;;;;;;;;;;;;;;;;;;5055867;28;1918;-67
2021/03/24 07:40:19;;;;;;;;;;;;;;;;;;5058798;28;1009;-66
2021/03/24 07:42:58;;;;;;;;;;;;;;;;;;5059061;28;1136;-67
2021/03/24 07:45:29;;;;;;;;;;;;;;;;;;5063337;28;1234;-67
2021/03/24 07:47:54;;;;;;;;;;;;;;;;;;5062176;28;1226;-68
2021/03/24 07:50:26;;;;;;;;;;;;;;;;;;5049781;28;1242;-67
2021/03/24 07:53:10;;;;;;;;;;;;;;;;;;5046291;28;1106;-66
2021/03/24 07:55:45;;;;;;;;;;;;;;;;;;5067898;28;889;-66
2021/03/24 07:58:29;;;;;;;;;;;;;;;;;;5061995;28;1190;-64
2021/03/24 08:00:55;;;;;;;;;;;;;;;;;;5062447;28;1029;-68
2021/03/24 08:03:33;;;;;;;;;;;;;;;;;;5065492;28;847;-71
2021/03/24 08:06:14;;;;;;;;;;;;;;;;;;5047546;28;1701;-70
2021/03/24 08:08:49;;;;;;;;;;;;;;;;;;5047769;28;1403;-69
2021/03/24 08:11:41;;;;;;;;;;;;;;;;;;5046995;28;973;-69
2021/03/24 08:14:09;;;;;;;;;;;;;;;;;;5037962;28;1321;-66
2021/03/24 08:16:43;;;;;;;;;;;;;;;;;;5042691;28;1961;-66
2021/03/24 08:19:08;;;;;;;;;;;;;;;;;;5028012;28;887;-67
2021/03/24 08:22:06;;;;;;;;;;;;;;;;;;5027000;28;839;-66
2021/03/24 08:24:49;;;;;;;;;;;;;;;;;;5050948;28;1370;-65
2021/03/24 08:27:17;;;;;;;;;;;;;;;;;;5049331;28;1027;-66
2021/03/24 08:29:43;;;;;;;;;;;;;;;;;;5046757;28;839;-66
2021/03/24 08:32:17;;;;;;;;;;;;;;;;;;5052668;28;1166;-66
2021/03/24 08:34:49;;;;;;;;;;;;;;;;;;5057186;28;1155;-65
2021/03/24 08:37:34;;;;;;;;;;;;;;;;;;5066321;28;1897;-65
2021/03/24 08:40:18;;;;;;;;;;;;;;;;;;5055659;28;1487;-69
2021/03/24 08:42:47;;;;;;;;;;;;;;;;;;5058692;28;1159;-68
2021/03/24 08:45:25;;;;;;;;;;;;;;;;;;5066457;28;881;-68
2021/03/24 08:47:53;;;;;;;;;;;;;;;;;;5065873;28;863;-66
2021/03/24 08:50:33;;;;;;;;;;;;;;;;;;5063539;28;1143;-67
2021/03/24 08:53:16;;;;;;;;;;;;;;;;;;5055448;28;1202;-66
2021/03/24 08:55:53;;;;;;;;;;;;;;;;;;5065349;28;1898;-68
2021/03/24 08:58:18;;;;;;;;;;;;;;;;;;5055504;28;1064;-64
2021/03/24 09:00:49;;;;;;;;;;;;;;;;;;5064900;28;1083;-63
2021/03/24 09:03:32;;;;;;;;;;;;;;;;;;5056175;28;1107;-64
2021/03/24 09:06:04;;;;;;;;;;;;;;;;;;5060516;28;1552;-64
2021/03/24 09:08:46;;;;;;;;;;;;;;;;;;5056929;28;1083;-64
2021/03/24 09:11:26;;;;;;;;;;;;;;;;;;5045035;28;1033;-67
2021/03/24 09:14:01;;;;;;;;;;;;;;;;;;5059755;28;1148;-64
2021/03/24 09:16:46;;;;;;;;;;;;;;;;;;5059657;28;1971;-66
2021/03/24 09:19:18;;;;;;;;;;;;;;;;;;5053506;28;1466;-69
2021/03/24 09:21:49;;;;;;;;;;;;;;;;;;5052871;28;1096;-67
2021/03/24 09:24:20;;;;;;;;;;;;;;;;;;5050002;28;1159;-68
2021/03/24 09:27:06;;;;;;;;;;;;;;;;;;5056569;28;1174;-67
2021/03/24 09:29:50;;;;;;;;;;;;;;;;;;5057215;28;1202;-67
2021/03/24 09:32:32;;;;;;;;;;;;;;;;;;5062167;28;1203;-68
2021/03/24 09:35:13;;;;;;;;;;;;;;;;;;5060133;28;1211;-69
2021/03/24 09:37:42;;;;;;;;;;;;;;;;;;5060570;28;1965;-67
2021/03/24 09:40:11;;;;;;;;;;;;;;;;;;5053452;28;1151;-68
2021/03/24 09:42:48;;;;;;;;;;;;;;;;;;5050427;28;1008;-69
2021/03/24 09:45:14;;;;;;;;;;;;;;;;;;5049805;28;909;-68
2021/03/24 09:47:45;;;;;;;;;;;;;;;;;;5050861;28;826;-66
2021/03/24 09:50:14;;;;;;;;;;;;;;;;;;5050388;28;814;-71
2021/03/24 09:52:58;;;;;;;;;;;;;;;;;;5053816;28;1226;-67
2021/03/24 09:55:24;;;;;;;;;;;;;;;;;;5056298;28;1456;-66
2021/03/24 09:57:49;;;;;;;;;;;;;;;;;;5060389;28;1930;-67
2021/03/24 10:00:18;;;;;;;;;;;;;;;;;;5050874;28;1246;-67
2021/03/24 10:03:01;;;;;;;;;;;;;;;;;;5061851;28;1241;-67
2021/03/24 10:05:30;;;;;;;;;;;;;;;;;;5055165;28;1901;-64
2021/03/24 10:08:00;;;;;;;;;;;;;;;;;;5049417;28;1225;-69
2021/03/24 10:10:28;;;;;;;;;;;;;;;;;;5055457;28;1265;-67
2021/03/24 10:12:55;;;;;;;;;;;;;;;;;;5050919;28;1126;-69
2021/03/24 10:15:20;;;;;;;;;;;;;;;;;;5058957;28;1194;-67
2021/03/24 10:17:55;;;;;;;;;;;;;;;;;;5057909;28;1957;-70
2021/03/24 10:20:20;;;;;;;;;;;;;;;;;;5044252;28;1007;-67
2021/03/24 10:22:49;;;;;;;;;;;;;;;;;;5054559;28;1071;-66
2021/03/24 10:25:20;;;;;;;;;;;;;;;;;;5058767;28;1006;-66
2021/03/24 10:27:47;;;;;;;;;;;;;;;;;;5051848;28;1286;-66
2021/03/24 10:30:12;;;;;;;;;;;;;;;;;;5058495;28;1209;-68
2021/03/24 10:33:10;;;;;;;;;;;;;;;;;;5057600;28;1221;-66
2021/03/24 10:35:41;;;;;;;;;;;;;;;;;;5057492;28;1499;-66
2021/03/24 10:38:10;;;;;;;;;;;;;;;;;;5049862;28;1957;-67
2021/03/24 10:40:38;;;;;;;;;;;;;;;;;;5053678;28;1160;-68
2021/03/24 10:43:15;;;;;;;;;;;;;;;;;;5047389;28;1206;-67
2021/03/24 10:46:03;;;;;;;;;;;;;;;;;;5029588;28;855;-67
2021/03/24 10:48:47;;;;;;;;;;;;;;;;;;5027804;28;1262;-67
2021/03/24 10:51:21;;;;;;;;;;;;;;;;;;5028561;28;1201;-66
2021/03/24 10:53:47;;;;;;;;;;;;;;;;;;5046920;28;1195;-66
2021/03/24 10:56:12;;;;;;;;;;;;;;;;;;5056691;28;1902;-66
2021/03/24 10:58:56;;;;;;;;;;;;;;;;;;5068746;28;847;-67
2021/03/24 11:01:21;;;;;;;;;;;;;;;;;;5066773;28;851;-66
2021/03/24 11:03:47;;;;;;;;;;;;;;;;;;5067245;28;1575;-67
2021/03/24 11:06:14;;;;;;;;;;;;;;;;;;5047471;28;1329;-68
2021/03/24 11:08:46;;;;;;;;;;;;;;;;;;5050826;28;1238;-66
2021/03/24 11:11:17;;;;;;;;;;;;;;;;;;5062710;28;1155;-67
2021/03/24 11:14:01;;;;;;;;;;;;;;;;;;5067756;28;882;-67
2021/03/24 11:16:33;;;;;;;;;;;;;;;;;;5066475;28;1969;-66
2021/03/24 11:19:09;;;;;;;;;;;;;;;;;;5067782;28;745;-63
2021/03/24 11:21:39;;;;;;;;;;;;;;;;;;5067589;28;803;-66
2021/03/24 11:24:07;;;;;;;;;;;;;;;;;;5064210;28;1076;-66
2021/03/24 11:26:42;;;;;;;;;;;;;;;;;;5066903;28;1053;-67
2021/03/24 11:29:08;;;;;;;;;;;;;;;;;;5068634;28;830;-66
2021/03/24 11:31:46;;;;;;;;;;;;;;;;;;5051808;28;1265;-65
2021/03/24 11:34:15;;;;;;;;;;;;;;;;;;5047429;28;838;-67
2021/03/24 11:36:46;;;;;;;;;;;;;;;;;;5048277;28;1914;-65
2021/03/24 11:39:11;;;;;;;;;;;;;;;;;;5046575;28;866;-68
2021/03/24 11:41:38;;;;;;;;;;;;;;;;;;5040059;28;1820;-65
2021/03/24 11:44:03;;;;;;;;;;;;;;;;;;5034698;28;808;-65
2021/03/24 11:46:41;;;;;;;;;;;;;;;;;;5038150;28;1369;-65
2021/03/24 11:49:22;;;;;;;;;;;;;;;;;;5066113;28;1217;-66
2021/03/24 11:52:06;;;;;;;;;;;;;;;;;;5065321;28;1236;-65
2021/03/24 11:54:41;;;;;;;;;;;;;;;;;;5053800;28;1154;-66
2021/03/24 11:57:23;;;;;;;;;;;;;;;;;;5048775;28;2000;-66
2021/03/24 12:00:11;;;;;;;;;;;;;;;;;;5048222;28;1244;-65
2021/03/24 12:02:42;;;;;;;;;;;;;;;;;;5065847;28;1250;-66
2021/03/24 12:05:27;;;;;;;;;;;;;;;;;;5058371;28;1547;-66
2021/03/24 12:07:58;;;;;;;;;;;;;;;;;;5053672;28;1240;-67
2021/03/24 12:10:34;;;;;;;;;;;;;;;;;;5049519;28;1180;-65
2021/03/24 12:13:01;;;;;;;;;;;;;;;;;;5046743;28;799;-65
2021/03/24 12:15:31;;;;;;;;;;;;;;;;;;5045144;28;1233;-66
2021/03/24 12:18:22;;;;;;;;;;;;;;;;;;5045988;28;1968;-65
2021/03/24 12:20:51;;;;;;;;;;;;;;;;;;5045823;28;1577;-64
2021/03/24 12:23:16;;;;;;;;;;;;;;;;;;5046425;28;1233;-64
2021/03/24 12:25:47;;;;;;;;;;;;;;;;;;5047146;28;871;-66
2021/03/24 12:28:12;;;;;;;;;;;;;;;;;;5049163;28;1161;-64
2021/03/24 12:30:45;;;;;;;;;;;;;;;;;;5047545;28;1190;-65
2021/03/24 12:33:13;;;;;;;;;;;;;;;;;;5048716;28;712;-69
2021/03/24 12:35:39;;;;;;;;;;;;;;;;;;5051639;28;1423;-67
2021/03/24 12:38:13;;;;;;;;;;;;;;;;;;5050284;28;1942;-67
2021/03/24 12:40:56;;;;;;;;;;;;;;;;;;5050833;28;1352;-67
2021/03/24 12:43:30;;;;;;;;;;;;;;;;;;5050961;28;1332;-67
2021/03/24 12:46:15;;;;;;;;;;;;;;;;;;5051004;28;914;-67
2021/03/24 12:48:51;;;;;;;;;;;;;;;;;;5051069;28;1447;-67
2021/03/24 12:51:24;;;;;;;;;;;;;;;;;;5051128;28;886;-67
2021/03/24 12:53:53;;;;;;;;;;;;;;;;;;5060214;28;1240;-67
2021/03/24 12:56:21;;;;;;;;;;;;;;;;;;5070330;28;1960;-67
2021/03/24 12:58:49;;;;;;;;;;;;;;;;;;5070577;28;798;-67
2021/03/24 13:01:40;;;;;;;;;;;;;;;;;;5054332;28;1355;-67
2021/03/24 13:04:22;;;;;;;;;;;;;;;;;;5046924;28;1623;-67
2021/03/24 13:06:57;;;;;;;;;;;;;;;;;;5046699;28;1348;-67
2021/03/24 13:09:42;;;;;;;;;;;;;;;;;;5050854;28;854;-67
2021/03/24 13:12:10;;;;;;;;;;;;;;;;;;5050853;28;1384;-66
2021/03/24 13:14:45;;;;;;;;;;;;;;;;;;5050019;28;839;-67
2021/03/24 13:17:22;;;;;;;;;;;;;;;;;;5051049;28;1957;-66
2021/03/24 13:20:03;;;;;;;;;;;;;;;;;;5050572;28;1206;-68
2021/03/24 13:22:39;;;;;;;;;;;;;;;;;;5030407;28;906;-66
2021/03/24 13:25:23;;;;;;;;;;;;;;;;;;5033209;28;1412;-66
2021/03/24 13:28:00;;;;;;;;;;;;;;;;;;5040068;28;1803;-66
2021/03/24 13:30:25;;;;;;;;;;;;;;;;;;5049393;28;1312;-66
2021/03/24 13:32:57;;;;;;;;;;;;;;;;;;5050076;28;908;-67
2021/03/24 13:35:31;;;;;;;;;;;;;;;;;;5049825;28;1277;-66
2021/03/24 13:37:57;;;;;;;;;;;;;;;;;;5049694;28;1955;-66
2021/03/24 13:40:29;;;;;;;;;;;;;;;;;;5049934;28;1341;-66
2021/03/24 13:42:57;;;;;;;;;;;;;;;;;;5049798;28;950;-66
2021/03/24 13:45:29;;;;;;;;;;;;;;;;;;5047454;28;1411;-66
2021/03/24 13:48:00;;;;;;;;;;;;;;;;;;5049025;28;882;-66
2021/03/24 13:50:28;;;;;;;;;;;;;;;;;;5049453;28;1340;-66
2021/03/24 13:52:56;;;;;;;;;;;;;;;;;;5051795;28;1134;-66
2021/03/24 13:55:39;;;;;;;;;;;;;;;;;;5065086;28;1201;-66
2021/03/24 13:58:19;;;;;;;;;;;;;;;;;;5049882;28;1973;-66
2021/03/24 14:00:54;;;;;;;;;;;;;;;;;;5049218;28;1344;-66
2021/03/24 14:03:43;;;;;;;;;;;;;;;;;;5049341;28;664;-67
2021/03/24 14:06:08;;;;;;;;;;;;;;;;;;5050424;28;1356;-66
2021/03/24 14:08:38;;;;;;;;;;;;;;;;;;5049301;28;898;-66
2021/03/24 14:11:22;;;;;;;;;;;;;;;;;;5048978;28;1206;-66
2021/03/24 14:14:06;;;;;;;;;;;;;;;;;;5049431;28;819;-66
2021/03/24 14:16:37;;;;;;;;;;;;;;;;;;5048829;28;1963;-66
2021/03/24 14:19:15;;;;;;;;;;;;;;;;;;5049005;28;910;-66
2021/03/24 14:21:58;;;;;;;;;;;;;;;;;;5049324;28;1368;-67
2021/03/24 14:24:23;;;;;;;;;;;;;;;;;;5049221;28;795;-66
2021/03/24 14:26:48;;;;;;;;;;;;;;;;;;5048631;28;1191;-66
2021/03/24 14:29:14;;;;;;;;;;;;;;;;;;5051286;28;1287;-67
2021/03/24 14:31:45;;;;;;;;;;;;;;;;;;5050181;28;1194;-66
2021/03/24 14:34:19;;;;;;;;;;;;;;;;;;5049636;28;926;-66
2021/03/24 14:36:49;;;;;;;;;;;;;;;;;;5048299;28;1898;-67
2021/03/24 14:39:24;;;;;;;;;;;;;;;;;;5048588;28;922;-67
2021/03/24 14:41:57;;;;;;;;;;;;;;;;;;5048296;28;1380;-66
2021/03/24 14:44:25;;;;;;;;;;;;;;;;;;5048156;28;937;-66
2021/03/24 14:46:51;;;;;;;;;;;;;;;;;;5048163;28;1379;-66
2021/03/24 14:49:45;;;;;;;;;;;;;;;;;;5048666;28;855;-66
2021/03/24 14:52:34;;;;;;;;;;;;;;;;;;5043904;28;1357;-67
2021/03/24 14:55:03;;;;;;;;;;;;;;;;;;5064304;28;1389;-66
2021/03/24 14:57:30;;;;;;;;;;;;;;;;;;5048857;28;1981;-66
2021/03/24 14:59:56;;;;;;;;;;;;;;;;;;5048009;28;1427;-66
2021/03/24 15:02:24;;;;;;;;;;;;;;;;;;5047856;28;839;-67
2021/03/24 15:04:51;;;;;;;;;;;;;;;;;;5048331;28;867;-66
2021/03/24 15:07:19;;;;;;;;;;;;;;;;;;5047784;28;1404;-66
2021/03/24 15:09:45;;;;;;;;;;;;;;;;;;5048174;28;859;-67
2021/03/24 15:12:14;;;;;;;;;;;;;;;;;;5047397;28;1436;-66
2021/03/24 15:14:52;;;;;;;;;;;;;;;;;;5048665;28;901;-65
2021/03/24 15:17:23;;;;;;;;;;;;;;;;;;5047144;28;1961;-64
2021/03/24 15:19:58;;;;;;;;;;;;;;;;;;5047724;28;889;-65
2021/03/24 15:22:41;;;;;;;;;;;;;;;;;;5048040;28;1400;-64
2021/03/24 15:25:07;;;;;;;;;;;;;;;;;;5048529;28;811;-64
2021/03/24 15:27:49;;;;;;;;;;;;;;;;;;5047554;28;1348;-64
2021/03/24 15:30:35;;;;;;;;;;;;;;;;;;5047801;28;1349;-63
2021/03/24 15:33:04;;;;;;;;;;;;;;;;;;5047782;28;1567;-63
2021/03/24 15:35:45;;;;;;;;;;;;;;;;;;5047501;28;1352;-65
2021/03/24 15:38:28;;;;;;;;;;;;;;;;;;5048409;28;1905;-64
2021/03/24 15:41:05;;;;;;;;;;;;;;;;;;5047189;28;1360;-66
2021/03/24 15:43:34;;;;;;;;;;;;;;;;;;5047390;28;1048;-66
2021/03/24 15:46:10;;;;;;;;;;;;;;;;;;5047373;28;1360;-66
2021/03/24 15:48:49;;;;;;;;;;;;;;;;;;5047115;28;1340;-66
2021/03/24 15:51:22;;;;;;;;;;;;;;;;;;5047384;28;807;-66
2021/03/24 15:53:53;;;;;;;;;;;;;;;;;;5051084;28;1164;-66
2021/03/24 15:56:31;;;;;;;;;;;;;;;;;;5047135;28;1906;-66
2021/03/24 15:59:00;;;;;;;;;;;;;;;;;;5047254;28;866;-66
2021/03/24 16:01:46;;;;;;;;;;;;;;;;;;5046546;28;1416;-65
2021/03/24 16:04:12;;;;;;;;;;;;;;;;;;5050842;28;1674;-68
2021/03/24 16:06:43;;;;;;;;;;;;;;;;;;5044042;28;1411;-65
2021/03/24 16:09:09;;;;;;;;;;;;;;;;;;5044506;28;1816;-64
2021/03/24 16:11:48;;;;;;;;;;;;;;;;;;5044009;28;1463;-65
2021/03/24 16:14:20;;;;;;;;;;;;;;;;;;5047372;28;895;-66
2021/03/24 16:17:16;;;;;;;;;;;;;;;;;;5053288;28;1955;-63
2021/03/24 16:19:51;;;;;;;;;;;;;;;;;;5059598;28;1371;-64
2021/03/24 16:22:19;;;;;;;;;;;;;;;;;;5046975;28;859;-62
2021/03/24 16:24:48;;;;;;;;;;;;;;;;;;5047640;28;1160;-64
2021/03/24 16:27:23;;;;;;;;;;;;;;;;;;5026918;28;899;-64
2021/03/24 16:30:27;;;;;;;;;;;;;;;;;;5027294;28;887;-63
2021/03/24 16:33:01;;;;;;;;;;;;;;;;;;5024772;28;1364;-64
2021/03/24 16:35:45;;;;;;;;;;;;;;;;;;5031860;28;1400;-64
2021/03/24 16:38:23;;;;;;;;;;;;;;;;;;5046989;28;1886;-64
2021/03/24 16:41:03;;;;;;;;;;;;;;;;;;5046605;28;1435;-64
2021/03/24 16:43:48;;;;;;;;;;;;;;;;;;5046811;28;934;-64
2021/03/24 16:46:31;;;;;;;;;;;;;;;;;;5046747;28;1246;-65
2021/03/24 16:48:57;;;;;;;;;;;;;;;;;;5045759;28;930;-64
2021/03/24 16:51:41;;;;;;;;;;;;;;;;;;5046149;28;1257;-64
2021/03/24 16:54:19;;;;;;;;;;;;;;;;;;5058818;28;1079;-64
2021/03/24 16:57:03;;;;;;;;;;;;;;;;;;5060980;28;1980;-65
2021/03/24 16:59:37;;;;;;;;;;;;;;;;;;5046466;28;812;-65
2021/03/24 17:02:17;;;;;;;;;;;;;;;;;;5046813;28;1368;-64
2021/03/24 17:04:46;;;;;;;;;;;;;;;;;;5046490;28;874;-65
2021/03/24 17:07:24;;;;;;;;;;;;;;;;;;5046612;28;1408;-65
2021/03/24 17:09:52;;;;;;;;;;;;;;;;;;5047099;28;874;-64
2021/03/24 17:12:18;;;;;;;;;;;;;;;;;;5046306;28;1364;-64
2021/03/24 17:14:55;;;;;;;;;;;;;;;;;;5044763;28;1476;-64
2021/03/24 17:17:47;;;;;;;;;;;;;;;;;;5042744;28;1921;-64
2021/03/24 17:20:36;;;;;;;;;;;;;;;;;;5051265;28;1203;-64
2021/03/24 17:23:01;;;;;;;;;;;;;;;;;;5053939;28;1520;-61
2021/03/24 17:25:31;;;;;;;;;;;;;;;;;;5051698;28;1533;-63
2021/03/24 17:28:11;;;;;;;;;;;;;;;;;;5052138;28;1744;-64
2021/03/24 17:30:37;;;;;;;;;;;;;;;;;;5060471;28;1607;-64
2021/03/24 17:33:04;;;;;;;;;;;;;;;;;;5058181;28;1623;-63
2021/03/24 17:35:34;;;;;;;;;;;;;;;;;;5059775;28;1433;-63
2021/03/24 17:38:15;;;;;;;;;;;;;;;;;;5053696;28;1897;-64
2021/03/24 17:40:44;;;;;;;;;;;;;;;;;;5055656;28;1380;-63
2021/03/24 17:43:28;;;;;;;;;;;;;;;;;;5048593;28;1278;-62
2021/03/24 17:46:05;;;;;;;;;;;;;;;;;;5051960;28;1698;-64
2021/03/24 17:48:49;;;;;;;;;;;;;;;;;;5058110;28;1175;-64